createdAt,value
2022-08-25T00:01:33.443Z,20.60
2022-08-25T00:06:31.042Z,20.44
2022-08-25T00:11:30.451Z,20.35
2022-08-25T00:16:27.619Z,20.29
2022-08-25T00:21:24.910Z,20.17
2022-08-25T00:26:21.439Z,20.01
2022-08-25T00:31:20.417Z,20.02
2022-08-25T00:36:19.005Z,20.01
2022-08-25T00:41:20.882Z,19.93
2022-08-25T00:46:21.442Z,19.93
2022-08-25T00:51:32.962Z,19.89
2022-08-25T00:56:31.468Z,19.69
2022-08-25T01:01:27.974Z,19.66
2022-08-25T01:06:24.783Z,19.59
2022-08-25T01:11:21.460Z,19.49
2022-08-25T01:16:18.403Z,19.45
2022-08-25T01:21:15.612Z,19.29
2022-08-25T01:26:30.227Z,19.12
2022-08-25T01:31:28.965Z,18.97
2022-08-25T01:36:26.963Z,18.81
2022-08-25T01:41:43.349Z,18.71
2022-08-25T01:46:40.289Z,18.81
2022-08-25T01:51:46.964Z,18.73
2022-08-25T01:56:43.533Z,18.58
2022-08-25T02:01:40.169Z,18.47
2022-08-25T02:06:36.683Z,18.40
2022-08-25T02:11:33.790Z,18.42
2022-08-25T02:16:34.016Z,18.62
2022-08-25T02:21:30.538Z,18.64
2022-08-25T02:26:27.512Z,18.60
2022-08-25T02:31:25.130Z,18.50
2022-08-25T02:36:23.152Z,18.36
2022-08-25T02:41:23.319Z,18.38
2022-08-25T02:46:27.711Z,18.38
2022-08-25T02:51:25.694Z,18.38
2022-08-25T02:56:22.110Z,18.31
2022-08-25T03:01:18.694Z,18.26
2022-08-25T03:06:19.607Z,18.08
2022-08-25T03:11:17.896Z,17.89
2022-08-25T03:16:14.560Z,17.86
2022-08-25T03:21:12.201Z,17.81
2022-08-25T03:26:28.034Z,17.78
2022-08-25T03:31:27.675Z,17.74
2022-08-25T03:36:25.685Z,17.71
2022-08-25T03:41:23.607Z,17.65
2022-08-25T03:46:26.546Z,17.64
2022-08-25T03:51:25.034Z,17.62
2022-08-25T03:56:21.471Z,17.63
2022-08-25T04:01:18.555Z,17.68
2022-08-25T04:06:17.155Z,17.73
2022-08-25T04:11:19.083Z,17.87
2022-08-25T04:16:19.621Z,17.87
2022-08-25T04:21:17.529Z,17.88
2022-08-25T04:26:21.463Z,17.83
2022-08-25T04:31:19.638Z,17.88
2022-08-25T04:36:18.196Z,17.85
2022-08-25T04:41:16.515Z,17.79
2022-08-25T04:46:20.206Z,17.81
2022-08-25T04:51:20.112Z,17.75
2022-08-25T04:56:21.809Z,17.70
2022-08-25T05:01:21.414Z,17.69
2022-08-25T05:06:18.578Z,17.70
2022-08-25T05:11:17.553Z,17.76
2022-08-25T05:16:15.104Z,17.87
2022-08-25T05:21:20.440Z,17.96
2022-08-25T05:26:21.470Z,18.07
2022-08-25T05:31:20.117Z,18.35
2022-08-25T05:36:17.204Z,18.72
2022-08-25T05:41:16.918Z,19.32
2022-08-25T05:46:13.488Z,19.79
2022-08-25T05:51:11.371Z,20.02
2022-08-25T05:56:08.516Z,20.20
2022-08-25T06:01:24.367Z,20.32
2022-08-25T06:06:24.273Z,20.52
2022-08-25T06:11:20.676Z,20.86
2022-08-25T06:16:17.195Z,21.00
2022-08-25T06:21:14.898Z,21.38
2022-08-25T06:26:20.957Z,21.67
2022-08-25T06:31:19.699Z,21.77
2022-08-25T06:36:17.261Z,22.19
2022-08-25T06:41:14.162Z,22.75
2022-08-25T06:46:16.672Z,23.34
2022-08-25T06:51:16.294Z,23.88
2022-08-25T06:56:12.789Z,24.42
2022-08-25T07:01:20.642Z,24.75
2022-08-25T07:06:18.745Z,24.99
2022-08-25T07:11:17.545Z,25.09
2022-08-25T07:16:17.985Z,25.29
2022-08-25T07:21:15.033Z,25.44
2022-08-25T07:26:36.197Z,25.58
2022-08-25T07:31:31.643Z,25.80
2022-08-25T07:36:28.853Z,26.12
2022-08-25T07:41:26.667Z,26.12
2022-08-25T07:46:23.156Z,26.29
2022-08-25T07:51:19.695Z,26.21
2022-08-25T07:56:17.743Z,26.35
2022-08-25T08:01:20.322Z,26.64
2022-08-25T08:06:20.426Z,26.80
2022-08-25T08:11:25.634Z,26.76
2022-08-25T08:16:24.675Z,26.85
2022-08-25T08:21:28.132Z,27.10
2022-08-25T08:26:36.246Z,27.09
2022-08-25T08:31:38.541Z,27.29
2022-08-25T08:36:34.984Z,27.61
2022-08-25T08:42:11.348Z,27.74
2022-08-25T08:47:27.351Z,27.56
2022-08-25T08:52:37.837Z,27.63
2022-08-25T08:57:41.287Z,27.70
2022-08-25T09:02:51.685Z,27.93
2022-08-25T09:07:55.105Z,28.10
2022-08-25T09:13:29.970Z,28.25
2022-08-25T09:18:50.977Z,28.09
2022-08-25T09:24:21.495Z,28.46
2022-08-25T09:29:25.441Z,28.53
2022-08-25T09:34:28.357Z,28.54
2022-08-25T09:39:25.004Z,28.77
2022-08-25T09:44:26.829Z,28.61
2022-08-25T09:49:32.006Z,28.65
2022-08-25T09:54:36.346Z,28.89
2022-08-25T09:59:41.161Z,29.16
2022-08-25T10:04:54.255Z,29.13
2022-08-25T10:09:57.099Z,29.39
2022-08-25T10:14:54.536Z,29.25
2022-08-25T10:19:53.994Z,29.45
2022-08-25T10:24:50.448Z,29.56
2022-08-25T10:29:49.828Z,29.79
2022-08-25T10:34:55.251Z,29.57
2022-08-25T10:40:29.749Z,29.74
2022-08-25T10:45:44.285Z,30.01
2022-08-25T10:50:49.443Z,29.74
2022-08-25T10:56:07.400Z,30.00
2022-08-25T11:01:06.689Z,30.52
2022-08-25T11:06:10.454Z,30.50
2022-08-25T11:11:13.904Z,30.87
2022-08-25T11:16:17.386Z,30.97
2022-08-25T11:21:26.105Z,31.22
2022-08-25T11:26:36.646Z,31.44
2022-08-25T11:31:40.440Z,31.24
2022-08-25T11:36:42.457Z,31.36
2022-08-25T11:41:51.120Z,31.50
2022-08-25T11:47:00.626Z,30.98
2022-08-25T11:52:03.025Z,31.11
2022-08-25T11:57:06.949Z,30.38
2022-08-25T12:02:03.545Z,29.97
2022-08-25T12:07:06.015Z,30.79
2022-08-25T12:12:38.437Z,31.35
2022-08-25T12:17:39.757Z,31.43
2022-08-25T12:22:36.104Z,30.96
2022-08-25T12:28:26.352Z,30.62
2022-08-25T12:33:54.048Z,31.27
2022-08-25T12:38:52.876Z,32.04
2022-08-25T12:43:53.753Z,31.99
2022-08-25T12:49:04.771Z,32.01
2022-08-25T12:54:30.829Z,32.01
2022-08-25T12:59:37.753Z,32.03
2022-08-25T13:04:59.292Z,31.85
2022-08-25T13:10:14.090Z,31.78
2022-08-25T13:15:24.921Z,31.31
2022-08-25T13:20:26.825Z,30.97
2022-08-25T13:25:24.778Z,30.38
2022-08-25T13:30:34.840Z,29.76
2022-08-25T13:35:33.007Z,29.46
2022-08-25T13:40:33.693Z,29.70
2022-08-25T13:45:41.488Z,29.80
2022-08-25T13:50:42.647Z,29.39
2022-08-25T13:55:52.275Z,29.25
2022-08-25T14:01:19.678Z,29.47
2022-08-25T14:06:23.688Z,29.81
2022-08-25T14:11:34.373Z,30.00
2022-08-25T14:16:35.989Z,29.77
2022-08-25T14:21:34.613Z,29.62
2022-08-25T14:26:31.045Z,30.54
2022-08-25T14:31:31.540Z,31.12
2022-08-25T14:36:33.571Z,31.27
2022-08-25T14:41:30.120Z,31.78
2022-08-25T14:46:29.545Z,32.33
2022-08-25T14:51:27.898Z,32.67
2022-08-25T14:56:27.664Z,32.82
2022-08-25T15:01:29.322Z,33.06
2022-08-25T15:06:26.829Z,32.92
2022-08-25T15:11:23.254Z,32.29
2022-08-25T15:16:34.005Z,32.29
2022-08-25T15:21:31.505Z,32.44
2022-08-25T15:26:27.983Z,32.73
2022-08-25T15:31:25.151Z,32.62
2022-08-25T15:36:25.701Z,32.60
2022-08-25T15:41:23.141Z,32.66
2022-08-25T15:46:27.120Z,32.93
2022-08-25T15:51:24.008Z,33.28
2022-08-25T15:56:26.529Z,32.85
2022-08-25T16:01:26.868Z,32.82
2022-08-25T16:06:25.721Z,32.83
2022-08-25T16:11:29.377Z,32.72
2022-08-25T16:16:29.703Z,32.80
2022-08-25T16:21:30.218Z,32.35
2022-08-25T16:26:27.166Z,32.45
2022-08-25T16:31:24.159Z,32.66
2022-08-25T16:36:23.764Z,32.80
2022-08-25T16:41:31.160Z,32.77
2022-08-25T16:46:28.795Z,34.06
2022-08-25T16:51:29.633Z,35.83
2022-08-25T16:56:29.571Z,38.29
2022-08-25T17:01:27.067Z,39.90
2022-08-25T17:06:26.154Z,40.86
2022-08-25T17:11:26.487Z,39.32
2022-08-25T17:16:27.962Z,39.48
2022-08-25T17:21:28.554Z,39.38
2022-08-25T17:26:28.072Z,39.68
2022-08-25T17:31:25.878Z,40.31
2022-08-25T17:36:26.891Z,40.41
2022-08-25T17:41:24.246Z,39.29
2022-08-25T17:46:20.804Z,38.45
2022-08-25T17:51:17.638Z,35.11
2022-08-25T17:56:17.384Z,32.34
2022-08-25T18:01:19.005Z,30.82
2022-08-25T18:06:16.181Z,29.79
2022-08-25T18:11:12.815Z,28.96
2022-08-25T18:16:10.991Z,28.28
2022-08-25T18:21:12.416Z,27.77
2022-08-25T18:26:10.622Z,27.29
2022-08-25T18:31:10.037Z,26.89
2022-08-25T18:36:06.820Z,26.57
2022-08-25T18:41:06.339Z,26.23
2022-08-25T18:46:04.715Z,25.86
2022-08-25T18:51:01.704Z,25.64
2022-08-25T18:55:58.130Z,25.34
2022-08-25T19:00:55.155Z,25.07
2022-08-25T19:05:57.042Z,24.80
2022-08-25T19:10:54.307Z,24.55
2022-08-25T19:15:52.401Z,24.29
2022-08-25T19:20:49.578Z,24.06
2022-08-25T19:25:49.079Z,23.85
2022-08-25T19:30:49.983Z,23.67
2022-08-25T19:35:51.279Z,23.50
2022-08-25T19:40:50.773Z,23.30
2022-08-25T19:45:47.525Z,23.18
2022-08-25T19:50:44.153Z,22.97
2022-08-25T19:55:42.756Z,22.92
2022-08-25T20:00:40.290Z,22.93
2022-08-25T20:05:37.609Z,22.88
2022-08-25T20:10:41.706Z,22.76
2022-08-25T20:15:39.366Z,22.62
2022-08-25T20:20:35.895Z,22.53
2022-08-25T20:25:36.074Z,22.43
2022-08-25T20:30:33.665Z,22.32
2022-08-25T20:35:30.257Z,22.30
2022-08-25T20:40:28.909Z,22.23
2022-08-25T20:45:25.433Z,22.17
2022-08-25T20:50:23.611Z,22.20
2022-08-25T20:55:21.728Z,22.03
2022-08-25T21:00:19.569Z,21.90
2022-08-25T21:05:21.509Z,21.89
2022-08-25T21:10:18.529Z,21.78
2022-08-25T21:15:18.046Z,21.73
2022-08-25T21:20:14.736Z,21.63
2022-08-25T21:25:11.283Z,21.59
2022-08-25T21:30:09.081Z,21.50
2022-08-25T21:35:07.714Z,21.44
2022-08-25T21:40:07.027Z,21.43
2022-08-25T21:45:05.587Z,21.39
2022-08-25T21:50:12.639Z,21.41
2022-08-25T21:55:16.146Z,21.47
2022-08-25T22:00:14.956Z,21.42
2022-08-25T22:05:11.879Z,21.43
2022-08-25T22:10:09.440Z,21.36
2022-08-25T22:15:15.500Z,21.37
2022-08-25T22:20:12.044Z,21.48
2022-08-25T22:25:09.254Z,21.49
2022-08-25T22:30:06.396Z,21.54
2022-08-25T22:35:02.933Z,21.43
2022-08-25T22:40:00.728Z,21.36
2022-08-25T22:44:58.389Z,21.39
2022-08-25T22:49:55.809Z,21.30
2022-08-25T22:54:53.079Z,21.27
2022-08-25T22:59:49.579Z,21.12
2022-08-25T23:04:46.025Z,21.03
2022-08-25T23:09:42.447Z,20.84
2022-08-25T23:14:44.082Z,20.72
2022-08-25T23:19:40.970Z,20.72
2022-08-25T23:24:43.153Z,20.68
2022-08-25T23:29:41.680Z,20.68
2022-08-25T23:34:39.738Z,20.58
2022-08-25T23:39:36.561Z,20.44
2022-08-25T23:44:36.759Z,20.21
2022-08-25T23:49:33.611Z,20.02
2022-08-25T23:54:31.512Z,19.99
2022-08-25T23:59:28.361Z,19.95
